Date,TemperatureHighF,TemperatureAvgF,TemperatureLowF,DewpointHighF,DewpointAvgF,DewpointLowF,HumidityHigh,HumidityAvg,HumidityLow,PressureMaxIn,PressureMinIn,WindSpeedMaxMPH,WindSpeedAvgMPH,GustSpeedMaxMPH,PrecipitationSumIn
2013-3-1,32.4,22.5,16.2,20.0,15.8,10.9,83,75,56,30.33,30.05,5,2,13,0.04
2013-3-2,47.3,32.4,22.3,20.8,17.0,10.9,81,56,26,30.36,29.73,6,2,11,0.02
2013-3-3,41.0,32.5,19.0,23.1,13.6,8.1,80,48,28,30.15,29.40,23,6,35,0.01
2013-3-4,35.1,20.1,-2.6,24.7,13.2,-7.9,85,75,43,30.63,29.41,8,2,15,0.04
2013-3-5,53.2,18.3,-6.0,7.1,-3.4,-11.1,75,46,10,30.75,29.48,8,2,12,0.03
2013-3-6,52.3,32.1,10.2,10.1,-2.3,-9.2,62,28,10,30.35,29.28,10,2,17,0.00
2013-3-7,55.9,35.3,19.9,4.3,-1.0,-11.3,44,23,10,30.04,29.27,13,3,21,0.00
2013-3-8,45.3,30.3,19.8,22.6,9.5,2.1,78,45,17,30.04,29.27,9,2,16,1.78
2013-3-9,31.8,25.9,15.3,24.8,19.8,8.5,84,78,71,30.05,29.37,4,1,9,0.00
2013-3-10,36.5,20.2,7.3,12.0,8.0,1.1,79,61,33,30.34,29.71,7,2,11,0.00
2013-3-11,34.3,24.5,12.6,20.2,13.0,6.4,83,62,47,30.29,29.75,9,3,17,0.02
2013-3-12,40.3,27.9,23.0,20.9,17.8,16.0,85,67,37,30.13,29.80,6,2,12,0.01
2013-3-13,51.8,34.9,25.3,19.4,14.8,4.8,62,47,15,30.33,29.72,8,2,12,0.02
2013-3-14,57.9,38.4,22.8,17.5,8.5,-2.7,65,36,10,30.38,29.62,5,2,10,0.00
2013-3-15,55.9,41.0,26.4,15.1,7.3,-2.2,57,32,10,30.22,29.40,13,3,22,0.00
2013-3-16,37.2,30.9,24.4,26.1,23.7,20.3,86,75,56,29.82,29.54,8,2,17,0.01
2013-3-17,37.2,25.1,17.4,22.2,15.4,0.0,84,68,37,29.91,29.31,11,2,18,0.08
2013-3-18,27.7,22.4,14.2,14.7,7.3,0.2,76,54,31,29.98,29.67,14,5,20,0.00
2013-3-19,42.1,26.5,11.1,14.2,-7.7,-20.4,74,25,10,30.46,29.67,15,4,21,0.00
2013-3-20,42.1,22.7,5.4,24.8,3.3,-9.9,83,47,15,30.55,29.54,14,2,19,0.00
2013-3-21,33.8,24.5,16.9,25.7,18.9,8.5,86,79,56,29.87,29.35,6,1,11,0.01
2013-3-22,32.2,18.8,4.1,13.5,3.4,-8.9,80,57,16,30.08,29.31,13,4,22,0.03
2013-3-23,25.2,14.3,8.4,10.8,5.5,1.4,81,69,42,30.16,29.62,6,1,9,1.96
2013-3-24,16.5,5.9,-3.3,6.9,-1.6,-8.5,78,70,55,30.40,29.91,4,1,8,0.00
2013-3-25,39.2,14.0,-5.1,3.8,-3.1,-11.9,68,50,16,30.59,29.63,6,2,11,0.00
2013-3-26,2.3,1.6,0.9,-5.2,-5.8,-6.5,68,68,68,30.51,30.50,2,2,3,0.00
2013-3-28,52.2,40.8,23.7,19.8,13.8,2.2,63,36,16,30.10,29.50,8,2,14,0.00
2013-3-29,52.2,35.4,22.6,27.3,20.2,13.4,83,56,21,30.19,29.54,13,2,21,0.00
2013-3-30,46.8,35.0,25.0,26.6,20.7,8.7,86,62,22,30.15,29.64,11,3,18,0.04
2013-3-31,60.1,37.0,15.3,20.9,7.5,-5.9,82,39,10,30.32,29.31,13,2,24,0.03